sensor_id;sensor_type;location;lat;lon;timestamp;pressure;altitude;pressure_sealevel;temperature;humidity
45872;BME280;32333;55.844;-3.210;2023-03-01T00:01:51;101883.86;;;2.29;100.00
45872;BME280;32333;55.844;-3.210;2023-03-01T00:04:19;101879.81;;;2.85;100.00
45872;BME280;32333;55.844;-3.210;2023-03-01T00:06:46;101879.34;;;1.84;100.00
45872;BME280;32333;55.844;-3.210;2023-03-01T00:09:15;101872.18;;;2.13;100.00
45872;BME280;32333;55.844;-3.210;2023-03-01T00:11:44;101877.02;;;1.67;100.00
45872;BME280;32333;55.844;-3.210;2023-03-01T00:14:36;101872.15;;;2.21;100.00
45872;BME280;32333;55.844;-3.210;2023-03-01T00:17:03;101871.87;;;2.03;100.00
45872;BME280;32333;55.844;-3.210;2023-03-01T00:19:31;101868.43;;;1.45;100.00
45872;BME280;32333;55.844;-3.210;2023-03-01T00:21:59;101873.27;;;1.07;100.00
45872;BME280;32333;55.844;-3.210;2023-03-01T00:24:27;101878.72;;;1.74;100.00
45872;BME280;32333;55.844;-3.210;2023-03-01T00:26:55;101879.41;;;2.03;100.00
45872;BME280;32333;55.844;-3.210;2023-03-01T00:29:24;101879.05;;;1.50;100.00
45872;BME280;32333;55.844;-3.210;2023-03-01T00:31:51;101881.07;;;1.82;100.00
45872;BME280;32333;55.844;-3.210;2023-03-01T00:34:19;101876.92;;;1.90;100.00
45872;BME280;32333;55.844;-3.210;2023-03-01T00:36:46;101883.85;;;1.97;100.00
45872;BME280;32333;55.844;-3.210;2023-03-01T00:39:15;101888.97;;;1.57;100.00
45872;BME280;32333;55.844;-3.210;2023-03-01T00:41:43;101889.01;;;1.03;100.00
45872;BME280;32333;55.844;-3.210;2023-03-01T00:44:35;101887.55;;;1.78;100.00
45872;BME280;32333;55.844;-3.210;2023-03-01T00:47:03;101887.31;;;0.91;100.00
45872;BME280;32333;55.844;-3.210;2023-03-01T00:49:31;101891.07;;;0.96;100.00
45872;BME280;32333;55.844;-3.210;2023-03-01T00:51:59;101887.11;;;1.98;100.00
45872;BME280;32333;55.844;-3.210;2023-03-01T00:54:27;101886.86;;;1.47;100.00
45872;BME280;32333;55.844;-3.210;2023-03-01T00:56:54;101889.27;;;2.38;100.00
45872;BME280;32333;55.844;-3.210;2023-03-01T00:59:23;101884.07;;;2.30;100.00
45872;BME280;32333;55.844;-3.210;2023-03-01T01:01:50;101880.26;;;2.17;100.00
45872;BME280;32333;55.844;-3.210;2023-03-01T01:04:18;101876.97;;;1.91;100.00
45872;BME280;32333;55.844;-3.210;2023-03-01T01:06:46;101875.66;;;1.90;100.00
45872;BME280;32333;55.844;-3.210;2023-03-01T01:09:15;101878.82;;;2.02;100.00
45872;BME280;32333;55.844;-3.210;2023-03-01T01:11:43;101880.64;;;2.39;100.00
45872;BME280;32333;55.844;-3.210;2023-03-01T01:14:36;101878.85;;;2.51;100.00
45872;BME280;32333;55.844;-3.210;2023-03-01T01:17:04;101882.51;;;2.07;100.00
45872;BME280;32333;55.844;-3.210;2023-03-01T01:19:31;101876.99;;;1.40;100.00
45872;BME280;32333;55.844;-3.210;2023-03-01T01:21:59;101875.06;;;2.11;100.00
45872;BME280;32333;55.844;-3.210;2023-03-01T01:24:27;101877.56;;;1.32;100.00
45872;BME280;32333;55.844;-3.210;2023-03-01T01:26:55;101878.03;;;1.89;100.00
45872;BME280;32333;55.844;-3.210;2023-03-01T01:29:22;101879.72;;;1.82;100.00
45872;BME280;32333;55.844;-3.210;2023-03-01T01:31:50;101873.76;;;1.67;100.00
45872;BME280;32333;55.844;-3.210;2023-03-01T01:34:19;101868.51;;;1.56;100.00
45872;BME280;32333;55.844;-3.210;2023-03-01T01:36:49;101863.24;;;1.64;100.00
45872;BME280;32333;55.844;-3.210;2023-03-01T01:39:16;101857.15;;;2.19;100.00
45872;BME280;32333;55.844;-3.210;2023-03-01T01:41:44;101853.27;;;1.41;100.00
45872;BME280;32333;55.844;-3.210;2023-03-01T01:44:36;101844.81;;;1.25;100.00
45872;BME280;32333;55.844;-3.210;2023-03-01T01:47:06;101848.02;;;2.39;100.00
45872;BME280;32333;55.844;-3.210;2023-03-01T01:49:39;101846.04;;;2.02;100.00
45872;BME280;32333;55.844;-3.210;2023-03-01T01:52:13;101851.80;;;1.77;100.00
45872;BME280;32333;55.844;-3.210;2023-03-01T01:54:44;101847.73;;;2.30;100.00
45872;BME280;32333;55.844;-3.210;2023-03-01T01:57:18;101841.12;;;2.24;100.00
45872;BME280;32333;55.844;-3.210;2023-03-01T01:59:49;101836.83;;;2.40;100.00
45872;BME280;32333;55.844;-3.210;2023-03-01T02:02:19;101834.66;;;2.36;100.00
45872;BME280;32333;55.844;-3.210;2023-03-01T02:04:46;101829.26;;;2.29;100.00
45872;BME280;32333;55.844;-3.210;2023-03-01T02:07:18;101822.95;;;2.16;100.00
45872;BME280;32333;55.844;-3.210;2023-03-01T02:09:48;101827.30;;;1.73;100.00
45872;BME280;32333;55.844;-3.210;2023-03-01T02:14:36;101812.29;;;2.12;100.00
45872;BME280;32333;55.844;-3.210;2023-03-01T02:17:03;101817.62;;;1.62;100.00
45872;BME280;32333;55.844;-3.210;2023-03-01T02:19:42;101812.62;;;1.84;100.00
45872;BME280;32333;55.844;-3.210;2023-03-01T02:22:20;101809.64;;;1.89;100.00
45872;BME280;32333;55.844;-3.210;2023-03-01T02:24:59;101809.52;;;1.02;100.00
45872;BME280;32333;55.844;-3.210;2023-03-01T02:27:40;101804.40;;;1.74;100.00
45872;BME280;32333;55.844;-3.210;2023-03-01T02:30:10;101799.91;;;1.58;100.00
45872;BME280;32333;55.844;-3.210;2023-03-01T02:32:39;101803.71;;;1.35;100.00
45872;BME280;32333;55.844;-3.210;2023-03-01T02:35:09;101801.24;;;1.53;100.00
45872;BME280;32333;55.844;-3.210;2023-03-01T02:37:40;101798.66;;;1.51;100.00
45872;BME280;32333;55.844;-3.210;2023-03-01T02:40:11;101799.05;;;1.82;100.00
45872;BME280;32333;55.844;-3.210;2023-03-01T02:44:36;101798.27;;;1.29;100.00
45872;BME280;32333;55.844;-3.210;2023-03-01T02:47:04;101801.39;;;1.21;100.00
45872;BME280;32333;55.844;-3.210;2023-03-01T02:49:33;101799.14;;;0.98;100.00
45872;BME280;32333;55.844;-3.210;2023-03-01T02:52:14;101796.87;;;1.47;100.00
45872;BME280;32333;55.844;-3.210;2023-03-01T02:54:50;101794.26;;;1.23;100.00
45872;BME280;32333;55.844;-3.210;2023-03-01T02:57:20;101793.92;;;1.58;100.00
45872;BME280;32333;55.844;-3.210;2023-03-01T02:59:50;101791.58;;;0.75;100.00
45872;BME280;32333;55.844;-3.210;2023-03-01T03:02:22;101787.70;;;1.46;100.00
45872;BME280;32333;55.844;-3.210;2023-03-01T03:04:51;101789.44;;;0.43;100.00
45872;BME280;32333;55.844;-3.210;2023-03-01T03:07:18;101784.06;;;0.98;100.00
45872;BME280;32333;55.844;-3.210;2023-03-01T03:09:46;101778.98;;;1.18;100.00
45872;BME280;32333;55.844;-3.210;2023-03-01T03:14:36;101776.73;;;1.11;100.00
45872;BME280;32333;55.844;-3.210;2023-03-01T03:17:03;101775.92;;;0.62;100.00
45872;BME280;32333;55.844;-3.210;2023-03-01T03:19:30;101778.32;;;0.83;100.00
45872;BME280;32333;55.844;-3.210;2023-03-01T03:21:59;101775.24;;;1.28;100.00
45872;BME280;32333;55.844;-3.210;2023-03-01T03:24:26;101777.28;;;1.64;100.00
45872;BME280;32333;55.844;-3.210;2023-03-01T03:26:54;101771.56;;;0.42;100.00
45872;BME280;32333;55.844;-3.210;2023-03-01T03:29:22;101772.35;;;0.84;100.00
45872;BME280;32333;55.844;-3.210;2023-03-01T03:31:49;101774.49;;;1.34;100.00
45872;BME280;32333;55.844;-3.210;2023-03-01T03:34:17;101777.15;;;0.92;100.00
45872;BME280;32333;55.844;-3.210;2023-03-01T03:36:44;101776.59;;;1.01;100.00
45872;BME280;32333;55.844;-3.210;2023-03-01T03:39:13;101774.39;;;0.21;100.00
45872;BME280;32333;55.844;-3.210;2023-03-01T03:41:40;101770.34;;;0.83;100.00
45872;BME280;32333;55.844;-3.210;2023-03-01T03:44:36;101762.89;;;1.65;100.00
45872;BME280;32333;55.844;-3.210;2023-03-01T03:47:03;101758.76;;;1.00;100.00
45872;BME280;32333;55.844;-3.210;2023-03-01T03:49:30;101759.90;;;1.39;100.00
45872;BME280;32333;55.844;-3.210;2023-03-01T03:51:59;101757.78;;;1.28;100.00
45872;BME280;32333;55.844;-3.210;2023-03-01T03:54:27;101757.03;;;0.95;100.00
45872;BME280;32333;55.844;-3.210;2023-03-01T03:56:54;101756.43;;;1.17;100.00
45872;BME280;32333;55.844;-3.210;2023-03-01T03:59:22;101755.43;;;1.53;100.00
45872;BME280;32333;55.844;-3.210;2023-03-01T04:01:49;101752.94;;;1.58;100.00
45872;BME280;32333;55.844;-3.210;2023-03-01T04:04:17;101755.83;;;1.04;100.00
45872;BME280;32333;55.844;-3.210;2023-03-01T04:06:44;101754.49;;;1.21;100.00
45872;BME280;32333;55.844;-3.210;2023-03-01T04:09:13;101762.08;;;1.33;100.00
45872;BME280;32333;55.844;-3.210;2023-03-01T04:11:40;101761.43;;;0.76;100.00
45872;BME280;32333;55.844;-3.210;2023-03-01T04:14:36;101763.93;;;0.85;100.00
45872;BME280;32333;55.844;-3.210;2023-03-01T04:17:03;101763.76;;;1.73;100.00
45872;BME280;32333;55.844;-3.210;2023-03-01T04:19:31;101762.51;;;1.58;100.00
45872;BME280;32333;55.844;-3.210;2023-03-01T04:21:59;101759.45;;;1.27;100.00
45872;BME280;32333;55.844;-3.210;2023-03-01T04:24:27;101760.22;;;0.90;100.00
45872;BME280;32333;55.844;-3.210;2023-03-01T04:26:54;101755.77;;;1.69;100.00
45872;BME280;32333;55.844;-3.210;2023-03-01T04:29:22;101756.08;;;1.56;100.00
45872;BME280;32333;55.844;-3.210;2023-03-01T04:31:49;101752.91;;;1.11;100.00
45872;BME280;32333;55.844;-3.210;2023-03-01T04:34:17;101746.39;;;1.29;100.00
45872;BME280;32333;55.844;-3.210;2023-03-01T04:36:44;101741.74;;;1.30;100.00
45872;BME280;32333;55.844;-3.210;2023-03-01T04:39:13;101743.67;;;1.60;100.00
45872;BME280;32333;55.844;-3.210;2023-03-01T04:41:41;101732.87;;;2.07;100.00
45872;BME280;32333;55.844;-3.210;2023-03-01T04:44:36;101725.91;;;1.35;100.00
45872;BME280;32333;55.844;-3.210;2023-03-01T04:47:03;101720.17;;;1.02;100.00
45872;BME280;32333;55.844;-3.210;2023-03-01T04:49:31;101717.81;;;0.39;100.00
45872;BME280;32333;55.844;-3.210;2023-03-01T04:51:59;101718.92;;;0.34;100.00
45872;BME280;32333;55.844;-3.210;2023-03-01T04:54:27;101720.90;;;0.41;100.00
45872;BME280;32333;55.844;-3.210;2023-03-01T04:56:54;101717.92;;;0.27;100.00
45872;BME280;32333;55.844;-3.210;2023-03-01T04:59:22;101727.25;;;0.52;100.00
45872;BME280;32333;55.844;-3.210;2023-03-01T05:01:49;101722.57;;;1.78;100.00
45872;BME280;32333;55.844;-3.210;2023-03-01T05:04:17;101728.19;;;0.55;100.00
45872;BME280;32333;55.844;-3.210;2023-03-01T05:06:44;101723.94;;;1.05;100.00
45872;BME280;32333;55.844;-3.210;2023-03-01T05:09:13;101717.76;;;1.06;100.00
45872;BME280;32333;55.844;-3.210;2023-03-01T05:11:40;101712.61;;;1.16;100.00
45872;BME280;32333;55.844;-3.210;2023-03-01T05:14:36;101718.33;;;1.14;100.00
45872;BME280;32333;55.844;-3.210;2023-03-01T05:17:03;101715.05;;;1.66;100.00
45872;BME280;32333;55.844;-3.210;2023-03-01T05:19:32;101713.43;;;0.95;100.00
45872;BME280;32333;55.844;-3.210;2023-03-01T05:22:00;101717.43;;;0.52;100.00
45872;BME280;32333;55.844;-3.210;2023-03-01T05:24:28;101719.69;;;1.30;100.00
45872;BME280;32333;55.844;-3.210;2023-03-01T05:26:56;101721.16;;;1.23;100.00
45872;BME280;32333;55.844;-3.210;2023-03-01T05:29:26;101718.43;;;1.43;100.00
45872;BME280;32333;55.844;-3.210;2023-03-01T05:31:55;101720.79;;;0.49;100.00
45872;BME280;32333;55.844;-3.210;2023-03-01T05:34:24;101724.17;;;0.98;100.00
45872;BME280;32333;55.844;-3.210;2023-03-01T05:36:53;101719.45;;;0.44;100.00
45872;BME280;32333;55.844;-3.210;2023-03-01T05:39:21;101725.30;;;0.31;100.00
45872;BME280;32333;55.844;-3.210;2023-03-01T05:41:53;101728.03;;;1.04;100.00
45872;BME280;32333;55.844;-3.210;2023-03-01T05:44:36;101729.53;;;1.18;100.00
45872;BME280;32333;55.844;-3.210;2023-03-01T05:47:03;101732.43;;;0.23;100.00
45872;BME280;32333;55.844;-3.210;2023-03-01T05:49:31;101728.21;;;0.81;100.00
45872;BME280;32333;55.844;-3.210;2023-03-01T05:52:00;101723.65;;;0.44;100.00
45872;BME280;32333;55.844;-3.210;2023-03-01T05:54:28;101721.02;;;0.64;100.00
45872;BME280;32333;55.844;-3.210;2023-03-01T05:56:55;101726.22;;;0.02;100.00
45872;BME280;32333;55.844;-3.210;2023-03-01T05:59:24;101726.45;;;0.42;100.00
45872;BME280;32333;55.844;-3.210;2023-03-01T06:01:51;101732.43;;;0.53;100.00
45872;BME280;32333;55.844;-3.210;2023-03-01T06:04:19;101727.13;;;0.53;100.00
45872;BME280;32333;55.844;-3.210;2023-03-01T06:06:46;101725.23;;;0.83;100.00
45872;BME280;32333;55.844;-3.210;2023-03-01T06:09:14;101725.93;;;0.82;100.00
45872;BME280;32333;55.844;-3.210;2023-03-01T06:11:42;101725.01;;;0.02;100.00
45872;BME280;32333;55.844;-3.210;2023-03-01T06:14:36;101724.76;;;0.34;100.00
45872;BME280;32333;55.844;-3.210;2023-03-01T06:17:04;101727.06;;;0.67;100.00
45872;BME280;32333;55.844;-3.210;2023-03-01T06:19:32;101730.58;;;0.60;100.00
45872;BME280;32333;55.844;-3.210;2023-03-01T06:22:00;101733.00;;;0.59;100.00
45872;BME280;32333;55.844;-3.210;2023-03-01T06:24:28;101724.73;;;0.68;100.00
45872;BME280;32333;55.844;-3.210;2023-03-01T06:26:55;101721.41;;;0.72;100.00
45872;BME280;32333;55.844;-3.210;2023-03-01T06:29:24;101728.15;;;0.97;100.00
45872;BME280;32333;55.844;-3.210;2023-03-01T06:31:51;101732.99;;;0.62;100.00
45872;BME280;32333;55.844;-3.210;2023-03-01T06:34:19;101730.21;;;0.91;100.00
45872;BME280;32333;55.844;-3.210;2023-03-01T06:36:47;101733.02;;;0.94;100.00
45872;BME280;32333;55.844;-3.210;2023-03-01T06:39:14;101733.95;;;0.51;100.00
45872;BME280;32333;55.844;-3.210;2023-03-01T06:41:41;101741.49;;;0.59;100.00
45872;BME280;32333;55.844;-3.210;2023-03-01T06:44:36;101740.82;;;0.82;100.00
45872;BME280;32333;55.844;-3.210;2023-03-01T06:47:03;101744.28;;;-0.44;100.00
45872;BME280;32333;55.844;-3.210;2023-03-01T06:49:31;101748.39;;;0.43;100.00
45872;BME280;32333;55.844;-3.210;2023-03-01T06:52:00;101746.04;;;0.85;100.00
45872;BME280;32333;55.844;-3.210;2023-03-01T06:54:27;101751.08;;;0.82;100.00
45872;BME280;32333;55.844;-3.210;2023-03-01T06:56:55;101749.16;;;0.63;100.00
45872;BME280;32333;55.844;-3.210;2023-03-01T06:59:24;101756.80;;;0.51;100.00
45872;BME280;32333;55.844;-3.210;2023-03-01T07:01:51;101758.60;;;0.38;100.00
45872;BME280;32333;55.844;-3.210;2023-03-01T07:04:18;101756.85;;;0.91;100.00
45872;BME280;32333;55.844;-3.210;2023-03-01T07:06:46;101753.56;;;0.26;100.00
45872;BME280;32333;55.844;-3.210;2023-03-01T07:09:13;101759.35;;;0.92;100.00
45872;BME280;32333;55.844;-3.210;2023-03-01T07:11:42;101763.52;;;1.00;100.00
45872;BME280;32333;55.844;-3.210;2023-03-01T07:14:36;101757.76;;;1.18;100.00
45872;BME280;32333;55.844;-3.210;2023-03-01T07:17:03;101757.29;;;0.13;100.00
45872;BME280;32333;55.844;-3.210;2023-03-01T07:19:31;101759.12;;;0.61;100.00
45872;BME280;32333;55.844;-3.210;2023-03-01T07:22:01;101762.12;;;1.10;100.00
45872;BME280;32333;55.844;-3.210;2023-03-01T07:24:29;101765.02;;;0.77;100.00
45872;BME280;32333;55.844;-3.210;2023-03-01T07:26:57;101761.30;;;0.66;100.00
45872;BME280;32333;55.844;-3.210;2023-03-01T07:29:25;101760.52;;;1.11;100.00
45872;BME280;32333;55.844;-3.210;2023-03-01T07:31:53;101757.03;;;1.32;100.00
45872;BME280;32333;55.844;-3.210;2023-03-01T07:34:21;101764.27;;;0.91;100.00
45872;BME280;32333;55.844;-3.210;2023-03-01T07:36:50;101761.01;;;1.06;100.00
45872;BME280;32333;55.844;-3.210;2023-03-01T07:39:17;101756.06;;;0.85;100.00
45872;BME280;32333;55.844;-3.210;2023-03-01T07:41:45;101757.62;;;1.17;100.00
45872;BME280;32333;55.844;-3.210;2023-03-01T07:44:36;101754.19;;;1.15;100.00
45872;BME280;32333;55.844;-3.210;2023-03-01T07:47:04;101756.11;;;1.57;100.00
45872;BME280;32333;55.844;-3.210;2023-03-01T07:49:31;101751.66;;;1.28;100.00
45872;BME280;32333;55.844;-3.210;2023-03-01T07:51:58;101745.95;;;1.99;100.00
45872;BME280;32333;55.844;-3.210;2023-03-01T07:54:26;101743.86;;;1.90;100.00
45872;BME280;32333;55.844;-3.210;2023-03-01T07:56:53;101744.58;;;1.82;100.00
45872;BME280;32333;55.844;-3.210;2023-03-01T07:59:21;101743.52;;;1.77;100.00
45872;BME280;32333;55.844;-3.210;2023-03-01T08:01:48;101737.39;;;1.49;100.00
45872;BME280;32333;55.844;-3.210;2023-03-01T08:04:17;101738.13;;;1.82;100.00
45872;BME280;32333;55.844;-3.210;2023-03-01T08:06:46;101734.11;;;0.88;100.00
45872;BME280;32333;55.844;-3.210;2023-03-01T08:09:14;101734.07;;;0.96;100.00
45872;BME280;32333;55.844;-3.210;2023-03-01T08:11:45;101731.36;;;0.63;100.00
45872;BME280;32333;55.844;-3.210;2023-03-01T08:14:36;101738.25;;;1.31;100.00
45872;BME280;32333;55.844;-3.210;2023-03-01T08:17:08;101731.29;;;1.29;100.00
45872;BME280;32333;55.844;-3.210;2023-03-01T08:19:42;101726.81;;;0.95;100.00
45872;BME280;32333;55.844;-3.210;2023-03-01T08:22:12;101721.11;;;1.37;100.00
45872;BME280;32333;55.844;-3.210;2023-03-01T08:24:39;101734.75;;;0.50;100.00
45872;BME280;32333;55.844;-3.210;2023-03-01T08:27:28;101727.36;;;1.63;100.00
45872;BME280;32333;55.844;-3.210;2023-03-01T08:29:56;101726.55;;;0.39;100.00
45872;BME280;32333;55.844;-3.210;2023-03-01T08:32:26;101724.29;;;0.57;100.00
45872;BME280;32333;55.844;-3.210;2023-03-01T08:34:57;101726.14;;;0.54;100.00
45872;BME280;32333;55.844;-3.210;2023-03-01T08:37:28;101711.94;;;0.73;100.00
45872;BME280;32333;55.844;-3.210;2023-03-01T08:39:57;101714.41;;;0.99;100.00
45872;BME280;32333;55.844;-3.210;2023-03-01T08:44:36;101712.05;;;1.00;100.00
45872;BME280;32333;55.844;-3.210;2023-03-01T08:47:06;101714.84;;;1.51;100.00
45872;BME280;32333;55.844;-3.210;2023-03-01T08:49:35;101717.67;;;1.30;100.00
45872;BME280;32333;55.844;-3.210;2023-03-01T08:52:03;101714.81;;;0.79;100.00
45872;BME280;32333;55.844;-3.210;2023-03-01T08:54:31;101713.28;;;2.21;100.00
45872;BME280;32333;55.844;-3.210;2023-03-01T08:57:02;101716.12;;;2.36;100.00
45872;BME280;32333;55.844;-3.210;2023-03-01T08:59:29;101717.20;;;2.05;100.00
45872;BME280;32333;55.844;-3.210;2023-03-01T09:02:04;101720.96;;;1.75;100.00
45872;BME280;32333;55.844;-3.210;2023-03-01T09:04:33;101727.25;;;1.58;100.00
45872;BME280;32333;55.844;-3.210;2023-03-01T09:10:00;101728.56;;;0.95;100.00
45872;BME280;32333;55.844;-3.210;2023-03-01T09:14:43;101724.23;;;1.93;100.00
45872;BME280;32333;55.844;-3.210;2023-03-01T09:17:11;101723.21;;;2.26;100.00
45872;BME280;32333;55.844;-3.210;2023-03-01T09:19:38;101724.96;;;1.85;100.00
45872;BME280;32333;55.844;-3.210;2023-03-01T09:22:07;101725.88;;;1.71;100.00
45872;BME280;32333;55.844;-3.210;2023-03-01T09:24:46;101722.38;;;2.03;100.00
45872;BME280;32333;55.844;-3.210;2023-03-01T09:27:16;101716.51;;;2.21;100.00
45872;BME280;32333;55.844;-3.210;2023-03-01T09:29:49;101713.49;;;2.42;100.00
45872;BME280;32333;55.844;-3.210;2023-03-01T09:32:18;101712.46;;;2.42;100.00
45872;BME280;32333;55.844;-3.210;2023-03-01T09:34:46;101714.48;;;2.67;100.00
45872;BME280;32333;55.844;-3.210;2023-03-01T09:37:13;101703.95;;;2.47;100.00
45872;BME280;32333;55.844;-3.210;2023-03-01T09:40:53;101702.22;;;2.05;100.00
45872;BME280;32333;55.844;-3.210;2023-03-01T09:44:40;101714.90;;;2.21;100.00
45872;BME280;32333;55.844;-3.210;2023-03-01T09:47:15;101718.16;;;2.21;100.00
45872;BME280;32333;55.844;-3.210;2023-03-01T09:49:48;101715.63;;;2.05;100.00
45872;BME280;32333;55.844;-3.210;2023-03-01T09:52:28;101714.77;;;2.24;100.00
45872;BME280;32333;55.844;-3.210;2023-03-01T09:54:58;101722.46;;;2.07;100.00
45872;BME280;32333;55.844;-3.210;2023-03-01T09:57:33;101723.29;;;1.63;100.00
45872;BME280;32333;55.844;-3.210;2023-03-01T10:00:17;101719.87;;;1.58;100.00
45872;BME280;32333;55.844;-3.210;2023-03-01T10:02:51;101726.43;;;1.68;100.00
45872;BME280;32333;55.844;-3.210;2023-03-01T10:05:33;101702.12;;;2.45;100.00
45872;BME280;32333;55.844;-3.210;2023-03-01T10:08:24;101720.31;;;1.65;100.00
45872;BME280;32333;55.844;-3.210;2023-03-01T10:10:54;101718.77;;;1.22;100.00
45872;BME280;32333;55.844;-3.210;2023-03-01T10:14:39;101716.23;;;1.71;100.00
45872;BME280;32333;55.844;-3.210;2023-03-01T10:17:19;101717.45;;;1.59;100.00
45872;BME280;32333;55.844;-3.210;2023-03-01T10:19:52;101713.97;;;2.08;100.00
45872;BME280;32333;55.844;-3.210;2023-03-01T10:22:29;101715.10;;;1.59;100.00
45872;BME280;32333;55.844;-3.210;2023-03-01T10:25:02;101725.78;;;1.16;100.00
45872;BME280;32333;55.844;-3.210;2023-03-01T10:27:37;101714.79;;;1.14;100.00
45872;BME280;32333;55.844;-3.210;2023-03-01T10:30:13;101710.95;;;1.62;100.00
45872;BME280;32333;55.844;-3.210;2023-03-01T10:32:43;101710.77;;;2.09;100.00
45872;BME280;32333;55.844;-3.210;2023-03-01T10:44:39;101713.00;;;1.75;100.00
45872;BME280;32333;55.844;-3.210;2023-03-01T10:47:21;101704.83;;;2.13;100.00
45872;BME280;32333;55.844;-3.210;2023-03-01T10:49:56;101689.58;;;2.03;100.00
45872;BME280;32333;55.844;-3.210;2023-03-01T10:52:28;101697.63;;;2.09;100.00
45872;BME280;32333;55.844;-3.210;2023-03-01T10:54:59;101696.73;;;2.01;100.00
45872;BME280;32333;55.844;-3.210;2023-03-01T10:57:32;101700.44;;;1.94;100.00
45872;BME280;32333;55.844;-3.210;2023-03-01T11:00:23;101702.78;;;2.24;100.00
45872;BME280;32333;55.844;-3.210;2023-03-01T11:03:04;101705.16;;;2.12;100.00
45872;BME280;32333;55.844;-3.210;2023-03-01T11:05:54;101708.96;;;1.53;100.00
45872;BME280;32333;55.844;-3.210;2023-03-01T11:08:39;101707.40;;;1.59;100.00
45872;BME280;32333;55.844;-3.210;2023-03-01T11:11:46;101708.54;;;1.39;100.00
45872;BME280;32333;55.844;-3.210;2023-03-01T11:14:38;101698.67;;;2.10;100.00
45872;BME280;32333;55.844;-3.210;2023-03-01T11:17:18;101693.79;;;1.79;100.00
45872;BME280;32333;55.844;-3.210;2023-03-01T11:20:03;101698.90;;;1.53;100.00
45872;BME280;32333;55.844;-3.210;2023-03-01T11:22:36;101697.94;;;1.91;100.00
45872;BME280;32333;55.844;-3.210;2023-03-01T11:25:04;101698.72;;;1.44;100.00
45872;BME280;32333;55.844;-3.210;2023-03-01T11:27:36;101697.03;;;1.54;100.00
45872;BME280;32333;55.844;-3.210;2023-03-01T11:30:13;101692.89;;;1.68;100.00
45872;BME280;32333;55.844;-3.210;2023-03-01T11:32:50;101686.35;;;1.45;100.00
45872;BME280;32333;55.844;-3.210;2023-03-01T11:35:23;101680.92;;;1.53;100.00
45872;BME280;32333;55.844;-3.210;2023-03-01T11:38:03;101669.51;;;1.18;100.00
45872;BME280;32333;55.844;-3.210;2023-03-01T11:40:38;101678.25;;;1.76;100.00
45872;BME280;32333;55.844;-3.210;2023-03-01T11:44:39;101675.77;;;1.29;100.00
45872;BME280;32333;55.844;-3.210;2023-03-01T11:47:17;101672.69;;;1.43;100.00
45872;BME280;32333;55.844;-3.210;2023-03-01T11:50:01;101670.29;;;1.55;100.00
45872;BME280;32333;55.844;-3.210;2023-03-01T11:52:42;101665.58;;;1.75;100.00
45872;BME280;32333;55.844;-3.210;2023-03-01T11:55:26;101660.13;;;2.05;100.00
45872;BME280;32333;55.844;-3.210;2023-03-01T11:58:10;101652.00;;;2.04;100.00
45872;BME280;32333;55.844;-3.210;2023-03-01T12:00:56;101647.94;;;1.83;100.00
45872;BME280;32333;55.844;-3.210;2023-03-01T12:03:33;101644.32;;;1.73;100.00
45872;BME280;32333;55.844;-3.210;2023-03-01T12:06:17;101642.80;;;1.31;100.00
45872;BME280;32333;55.844;-3.210;2023-03-01T12:08:52;101643.18;;;2.03;100.00
45872;BME280;32333;55.844;-3.210;2023-03-01T12:11:40;101635.87;;;1.25;100.00
45872;BME280;32333;55.844;-3.210;2023-03-01T12:14:49;101640.53;;;1.49;100.00
45872;BME280;32333;55.844;-3.210;2023-03-01T12:17:31;101626.41;;;1.47;100.00
45872;BME280;32333;55.844;-3.210;2023-03-01T12:20:25;101619.22;;;1.94;100.00
45872;BME280;32333;55.844;-3.210;2023-03-01T12:23:20;101620.64;;;2.03;100.00
45872;BME280;32333;55.844;-3.210;2023-03-01T12:25:58;101624.79;;;1.81;100.00
45872;BME280;32333;55.844;-3.210;2023-03-01T12:29:07;101615.56;;;1.47;100.00
45872;BME280;32333;55.844;-3.210;2023-03-01T12:31:56;101618.15;;;1.73;100.00
45872;BME280;32333;55.844;-3.210;2023-03-01T12:34:38;101608.20;;;1.79;100.00
45872;BME280;32333;55.844;-3.210;2023-03-01T12:37:33;101606.07;;;2.27;100.00
45872;BME280;32333;55.844;-3.210;2023-03-01T12:40:21;101597.59;;;1.95;100.00
45872;BME280;32333;55.844;-3.210;2023-03-01T12:45:24;101606.93;;;1.40;100.00
45872;BME280;32333;55.844;-3.210;2023-03-01T12:48:07;101592.07;;;1.70;100.00
45872;BME280;32333;55.844;-3.210;2023-03-01T12:50:40;101582.72;;;1.06;100.00
45872;BME280;32333;55.844;-3.210;2023-03-01T12:53:21;101580.41;;;1.74;100.00
45872;BME280;32333;55.844;-3.210;2023-03-01T12:56:21;101569.72;;;1.82;100.00
45872;BME280;32333;55.844;-3.210;2023-03-01T12:59:05;101567.45;;;1.32;100.00
45872;BME280;32333;55.844;-3.210;2023-03-01T13:01:45;101565.33;;;1.61;100.00
45872;BME280;32333;55.844;-3.210;2023-03-01T13:09:23;101567.78;;;2.18;100.00
45872;BME280;32333;55.844;-3.210;2023-03-01T13:15:43;101562.38;;;1.78;100.00
45872;BME280;32333;55.844;-3.210;2023-03-01T13:18:30;101564.23;;;1.55;100.00
45872;BME280;32333;55.844;-3.210;2023-03-01T13:21:03;101562.69;;;1.93;100.00
45872;BME280;32333;55.844;-3.210;2023-03-01T13:23:35;101570.28;;;1.70;100.00
45872;BME280;32333;55.844;-3.210;2023-03-01T13:26:10;101557.77;;;1.79;100.00
45872;BME280;32333;55.844;-3.210;2023-03-01T13:28:48;101558.42;;;1.81;100.00
45872;BME280;32333;55.844;-3.210;2023-03-01T13:32:06;101557.61;;;2.45;100.00
45872;BME280;32333;55.844;-3.210;2023-03-01T13:36:00;101554.49;;;2.00;100.00
45872;BME280;32333;55.844;-3.210;2023-03-01T13:38:48;101552.97;;;2.16;100.00
45872;BME280;32333;55.844;-3.210;2023-03-01T13:41:50;101546.08;;;1.39;100.00
45872;BME280;32333;55.844;-3.210;2023-03-01T13:44:37;101544.52;;;2.16;100.00
45872;BME280;32333;55.844;-3.210;2023-03-01T13:47:16;101543.00;;;1.90;100.00
45872;BME280;32333;55.844;-3.210;2023-03-01T13:49:49;101537.49;;;2.18;100.00
45872;BME280;32333;55.844;-3.210;2023-03-01T13:52:36;101527.47;;;2.90;100.00